sensor_id;sensor_type;location;lat;lon;timestamp;pressure;altitude;pressure_sealevel;temperature;humidity
7180;BME280;3631;42.152;24.756;2023-06-22T00:00:10;84275.41;;;-144.30;66.18
7180;BME280;3631;42.152;24.756;2023-06-22T00:02:37;84287.34;;;-144.30;66.41
7180;BME280;3631;42.152;24.756;2023-06-22T00:05:05;84247.59;;;-144.30;66.63
7180;BME280;3631;42.152;24.756;2023-06-22T00:07:33;84259.50;;;-144.30;66.92
7180;BME280;3631;42.152;24.756;2023-06-22T00:10:00;84251.56;;;-144.30;66.94
7180;BME280;3631;42.152;24.756;2023-06-22T00:12:27;84265.47;;;-144.30;66.97
7180;BME280;3631;42.152;24.756;2023-06-22T00:14:54;84257.53;;;-144.30;66.94
7180;BME280;3631;42.152;24.756;2023-06-22T00:17:20;84255.53;;;-144.30;67.21
7180;BME280;3631;42.152;24.756;2023-06-22T00:19:47;84261.50;;;-144.30;67.46
7180;BME280;3631;42.152;24.756;2023-06-22T00:22:18;84259.50;;;-144.30;67.75
7180;BME280;3631;42.152;24.756;2023-06-22T00:24:55;84247.59;;;-144.30;67.90
7180;BME280;3631;42.152;24.756;2023-06-22T00:27:22;84283.38;;;-144.30;67.71
7180;BME280;3631;42.152;24.756;2023-06-22T00:29:49;84301.25;;;-144.30;67.46
7180;BME280;3631;42.152;24.756;2023-06-22T00:32:17;84251.56;;;-144.30;67.57
7180;BME280;3631;42.152;24.756;2023-06-22T00:34:44;84311.19;;;-144.30;67.12
7180;BME280;3631;42.152;24.756;2023-06-22T00:37:12;84299.25;;;-144.30;66.86
7180;BME280;3631;42.152;24.756;2023-06-22T00:39:39;84323.13;;;-144.30;67.58
7180;BME280;3631;42.152;24.756;2023-06-22T00:42:07;84285.34;;;-144.30;68.21
7180;BME280;3631;42.152;24.756;2023-06-22T00:44:34;84303.25;;;-144.30;68.30
7180;BME280;3631;42.152;24.756;2023-06-22T00:47:02;84279.38;;;-144.30;68.45
7180;BME280;3631;42.152;24.756;2023-06-22T00:49:30;84335.03;;;-144.30;68.22
7180;BME280;3631;42.152;24.756;2023-06-22T00:51:57;84323.13;;;-144.30;67.92
7180;BME280;3631;42.152;24.756;2023-06-22T00:54:24;84315.16;;;-144.30;68.67
7180;BME280;3631;42.152;24.756;2023-06-22T00:56:53;84348.94;;;-144.30;69.48
7180;BME280;3631;42.152;24.756;2023-06-22T00:59:23;84360.88;;;-144.30;69.87
7180;BME280;3631;42.152;24.756;2023-06-22T01:01:51;84342.97;;;-144.30;70.39
7180;BME280;3631;42.152;24.756;2023-06-22T01:04:18;84362.84;;;-144.30;70.82
7180;BME280;3631;42.152;24.756;2023-06-22T01:06:51;84376.78;;;-144.30;71.05
7180;BME280;3631;42.152;24.756;2023-06-22T01:09:27;84446.31;;;-144.30;71.71
7180;BME280;3631;42.152;24.756;2023-06-22T01:12:00;84410.56;;;-144.30;72.10
7180;BME280;3631;42.152;24.756;2023-06-22T01:14:34;84426.47;;;-144.30;72.27
7180;BME280;3631;42.152;24.756;2023-06-22T01:17:03;84424.47;;;-144.30;72.61
7180;BME280;3631;42.152;24.756;2023-06-22T01:19:39;84398.63;;;-144.30;73.14
7180;BME280;3631;42.152;24.756;2023-06-22T01:22:08;84466.19;;;-144.30;73.44
7180;BME280;3631;42.152;24.756;2023-06-22T01:24:51;84444.34;;;-144.30;73.45
7180;BME280;3631;42.152;24.756;2023-06-22T01:27:32;84259.50;;;-144.30;73.20
7180;BME280;3631;42.152;24.756;2023-06-22T01:30:02;84426.47;;;-144.30;73.22
7180;BME280;3631;42.152;24.756;2023-06-22T01:32:33;84368.81;;;-144.30;72.31
7180;BME280;3631;42.152;24.756;2023-06-22T01:35:01;84438.38;;;-144.30;71.81
7180;BME280;3631;42.152;24.756;2023-06-22T01:37:30;84350.94;;;-144.30;72.08
7180;BME280;3631;42.152;24.756;2023-06-22T01:39:59;84494.03;;;-144.30;72.26
7180;BME280;3631;42.152;24.756;2023-06-22T01:42:27;84454.28;;;-144.30;72.24
7180;BME280;3631;42.152;24.756;2023-06-22T01:44:55;84454.28;;;-144.30;72.13
7180;BME280;3631;42.152;24.756;2023-06-22T01:47:25;84464.22;;;-144.30;72.41
7180;BME280;3631;42.152;24.756;2023-06-22T01:49:53;84380.75;;;-144.30;72.55
7180;BME280;3631;42.152;24.756;2023-06-22T01:52:20;84517.88;;;-144.30;73.47
7180;BME280;3631;42.152;24.756;2023-06-22T01:54:47;84537.75;;;-144.30;74.63
7180;BME280;3631;42.152;24.756;2023-06-22T01:57:14;84573.53;;;-144.30;75.09
7180;BME280;3631;42.152;24.756;2023-06-22T01:59:46;84561.59;;;-144.30;75.39
7180;BME280;3631;42.152;24.756;2023-06-22T02:02:17;84581.47;;;-144.30;75.86
7180;BME280;3631;42.152;24.756;2023-06-22T02:04:52;84577.50;;;-144.30;76.72
7180;BME280;3631;42.152;24.756;2023-06-22T02:07:23;84565.56;;;-144.30;77.43
7180;BME280;3631;42.152;24.756;2023-06-22T02:09:52;84605.31;;;-144.30;77.48
7180;BME280;3631;42.152;24.756;2023-06-22T02:12:22;84559.63;;;-144.30;74.84
7180;BME280;3631;42.152;24.756;2023-06-22T02:14:50;84539.75;;;-144.30;74.24
7180;BME280;3631;42.152;24.756;2023-06-22T02:17:18;84541.72;;;-144.30;74.17
7180;BME280;3631;42.152;24.756;2023-06-22T02:19:45;84565.56;;;-144.30;74.27
7180;BME280;3631;42.152;24.756;2023-06-22T02:22:14;84585.44;;;-144.30;74.96
7180;BME280;3631;42.152;24.756;2023-06-22T02:24:41;84553.66;;;-144.30;74.99
7180;BME280;3631;42.152;24.756;2023-06-22T02:27:08;84623.22;;;-144.30;75.28
7180;BME280;3631;42.152;24.756;2023-06-22T02:29:36;84595.38;;;-144.30;75.60
7180;BME280;3631;42.152;24.756;2023-06-22T02:32:03;84585.44;;;-144.30;75.92
7180;BME280;3631;42.152;24.756;2023-06-22T02:34:31;84589.41;;;-144.30;76.31
7180;BME280;3631;42.152;24.756;2023-06-22T02:36:59;84577.50;;;-144.30;76.69
7180;BME280;3631;42.152;24.756;2023-06-22T02:39:29;84617.25;;;-144.30;76.71
7180;BME280;3631;42.152;24.756;2023-06-22T02:41:56;84597.38;;;-144.30;76.84
7180;BME280;3631;42.152;24.756;2023-06-22T02:44:23;84613.28;;;-144.30;76.77
7180;BME280;3631;42.152;24.756;2023-06-22T02:46:50;84595.38;;;-144.30;77.26
7180;BME280;3631;42.152;24.756;2023-06-22T02:49:17;84623.22;;;-144.30;77.17
7180;BME280;3631;42.152;24.756;2023-06-22T02:51:46;84639.13;;;-144.30;77.39
7180;BME280;3631;42.152;24.756;2023-06-22T02:54:13;84657.00;;;-144.30;77.82
7180;BME280;3631;42.152;24.756;2023-06-22T02:56:41;84645.06;;;-144.30;78.33
7180;BME280;3631;42.152;24.756;2023-06-22T02:59:09;84649.03;;;-144.30;78.52
7180;BME280;3631;42.152;24.756;2023-06-22T03:01:36;84649.03;;;-144.30;78.16
7180;BME280;3631;42.152;24.756;2023-06-22T03:04:05;84653.03;;;-144.30;78.64
7180;BME280;3631;42.152;24.756;2023-06-22T03:06:33;84641.09;;;-144.30;78.81
7180;BME280;3631;42.152;24.756;2023-06-22T03:09:01;84686.81;;;-144.30;78.86
7180;BME280;3631;42.152;24.756;2023-06-22T03:11:29;84676.88;;;-144.30;78.59
7180;BME280;3631;42.152;24.756;2023-06-22T03:13:58;84686.81;;;-144.30;77.36
7180;BME280;3631;42.152;24.756;2023-06-22T03:16:25;84684.81;;;-144.30;76.13
7180;BME280;3631;42.152;24.756;2023-06-22T03:18:52;84672.91;;;-144.30;75.50
7180;BME280;3631;42.152;24.756;2023-06-22T03:21:21;84593.41;;;-144.30;75.23
7180;BME280;3631;42.152;24.756;2023-06-22T03:23:48;84653.03;;;-144.30;74.86
7180;BME280;3631;42.152;24.756;2023-06-22T03:26:16;84688.81;;;-144.30;74.99
7180;BME280;3631;42.152;24.756;2023-06-22T03:28:43;84637.13;;;-144.30;74.81
7180;BME280;3631;42.152;24.756;2023-06-22T03:31:12;84645.06;;;-144.30;74.11
7180;BME280;3631;42.152;24.756;2023-06-22T03:33:38;84649.03;;;-144.30;73.07
7180;BME280;3631;42.152;24.756;2023-06-22T03:36:05;84623.22;;;-144.30;71.77
7180;BME280;3631;42.152;24.756;2023-06-22T03:38:32;84583.47;;;-144.30;71.16
7180;BME280;3631;42.152;24.756;2023-06-22T03:40:59;84577.50;;;-144.30;69.99
7180;BME280;3631;42.152;24.756;2023-06-22T03:43:26;84869.66;;;-144.30;69.02
7180;BME280;3631;42.152;24.756;2023-06-22T03:45:53;84565.56;;;-144.30;68.23
7180;BME280;3631;42.152;24.756;2023-06-22T03:48:21;84523.84;;;-144.30;67.48
7180;BME280;3631;42.152;24.756;2023-06-22T03:50:48;84468.19;;;-144.30;66.97
7180;BME280;3631;42.152;24.756;2023-06-22T03:53:15;84446.31;;;-144.30;66.71
7180;BME280;3631;42.152;24.756;2023-06-22T03:55:48;84279.38;;;-144.30;62.78
7180;BME280;3631;42.152;24.756;2023-06-22T03:58:16;84096.56;;;-144.30;58.18
7180;BME280;3631;42.152;24.756;2023-06-22T04:00:45;83949.50;;;-144.30;53.63
7180;BME280;3631;42.152;24.756;2023-06-22T04:03:12;83796.50;;;-144.30;50.50
7180;BME280;3631;42.152;24.756;2023-06-22T04:05:41;83464.69;;;-144.30;48.47
7180;BME280;3631;42.152;24.756;2023-06-22T04:08:08;83536.22;;;-144.30;46.50
7180;BME280;3631;42.152;24.756;2023-06-22T04:10:35;83462.72;;;-144.30;44.62
7180;BME280;3631;42.152;24.756;2023-06-22T04:13:02;83395.16;;;-144.30;43.83
7180;BME280;3631;42.152;24.756;2023-06-22T04:15:29;83226.28;;;-144.30;42.66
7180;BME280;3631;42.152;24.756;2023-06-22T04:17:56;83162.72;;;-144.30;41.11
7180;BME280;3631;42.152;24.756;2023-06-22T04:20:23;82950.16;;;-144.30;39.80
7180;BME280;3631;42.152;24.756;2023-06-22T04:22:54;82848.84;;;-144.30;38.05
7180;BME280;3631;42.152;24.756;2023-06-22T04:25:22;82630.34;;;-144.30;37.06
7180;BME280;3631;42.152;24.756;2023-06-22T04:27:49;82395.94;;;-144.30;35.73
7180;BME280;3631;42.152;24.756;2023-06-22T04:30:16;82298.63;;;-144.30;34.88
7180;BME280;3631;42.152;24.756;2023-06-22T04:32:43;82173.50;;;-144.30;34.13
7180;BME280;3631;42.152;24.756;2023-06-22T04:35:10;82018.59;;;-144.30;33.57
7180;BME280;3631;42.152;24.756;2023-06-22T04:37:37;82048.38;;;-144.30;33.31
7180;BME280;3631;42.152;24.756;2023-06-22T04:40:07;81961.00;;;-144.30;33.33
7180;BME280;3631;42.152;24.756;2023-06-22T04:42:35;81943.13;;;-144.30;33.00
7180;BME280;3631;42.152;24.756;2023-06-22T04:45:03;81790.22;;;-144.30;32.42
7180;BME280;3631;42.152;24.756;2023-06-22T04:47:30;81768.38;;;-144.30;32.02
7180;BME280;3631;42.152;24.756;2023-06-22T04:49:57;81589.66;;;-144.30;31.57
7180;BME280;3631;42.152;24.756;2023-06-22T04:52:24;81472.47;;;-144.30;31.23
7180;BME280;3631;42.152;24.756;2023-06-22T04:54:50;81456.59;;;-144.30;31.20
7180;BME280;3631;42.152;24.756;2023-06-22T04:57:22;81363.28;;;-144.30;30.45
7180;BME280;3631;42.152;24.756;2023-06-22T04:59:56;81452.63;;;-144.30;30.77
7180;BME280;3631;42.152;24.756;2023-06-22T05:02:23;81504.25;;;-144.30;31.25
7180;BME280;3631;42.152;24.756;2023-06-22T05:04:58;81347.38;;;-144.30;30.83
7180;BME280;3631;42.152;24.756;2023-06-22T05:07:25;81200.47;;;-144.30;30.30
7180;BME280;3631;42.152;24.756;2023-06-22T05:09:52;81041.63;;;-144.30;29.85
7180;BME280;3631;42.152;24.756;2023-06-22T05:12:19;80986.03;;;-144.30;29.55
7180;BME280;3631;42.152;24.756;2023-06-22T05:14:47;80938.38;;;-144.30;29.41
7180;BME280;3631;42.152;24.756;2023-06-22T05:17:14;81009.84;;;-144.30;29.48
7180;BME280;3631;42.152;24.756;2023-06-22T05:19:44;81053.53;;;-144.30;29.68
7180;BME280;3631;42.152;24.756;2023-06-22T05:22:15;80767.63;;;-144.30;29.26
7180;BME280;3631;42.152;24.756;2023-06-22T05:24:42;80894.69;;;-144.30;29.42
7180;BME280;3631;42.152;24.756;2023-06-22T05:27:09;81111.13;;;-144.30;30.36
7180;BME280;3631;42.152;24.756;2023-06-22T05:29:37;81105.16;;;-144.30;29.96
7180;BME280;3631;42.152;24.756;2023-06-22T05:32:06;81087.28;;;-144.30;30.15
7180;BME280;3631;42.152;24.756;2023-06-22T05:34:33;81089.28;;;-144.30;29.92
7180;BME280;3631;42.152;24.756;2023-06-22T05:37:00;81093.25;;;-144.30;30.14
7180;BME280;3631;42.152;24.756;2023-06-22T05:39:27;81121.03;;;-144.30;30.04
7180;BME280;3631;42.152;24.756;2023-06-22T05:41:54;81005.88;;;-144.30;29.69
7180;BME280;3631;42.152;24.756;2023-06-22T05:44:21;81043.59;;;-144.30;29.80
7180;BME280;3631;42.152;24.756;2023-06-22T05:46:48;81081.34;;;-144.30;29.89
7180;BME280;3631;42.152;24.756;2023-06-22T05:49:16;81037.66;;;-144.30;29.54
7180;BME280;3631;42.152;24.756;2023-06-22T05:51:43;81101.19;;;-144.30;29.78
7180;BME280;3631;42.152;24.756;2023-06-22T05:54:10;81113.09;;;-144.30;29.72
7180;BME280;3631;42.152;24.756;2023-06-22T05:56:39;81009.84;;;-144.30;29.51
7180;BME280;3631;42.152;24.756;2023-06-22T05:59:05;80993.97;;;-144.30;29.17
7180;BME280;3631;42.152;24.756;2023-06-22T06:01:32;81017.78;;;-144.30;29.51
7180;BME280;3631;42.152;24.756;2023-06-22T06:04:02;80924.47;;;-144.30;28.92
7180;BME280;3631;42.152;24.756;2023-06-22T06:06:30;80938.38;;;-144.30;28.99
7180;BME280;3631;42.152;24.756;2023-06-22T06:08:57;80831.16;;;-144.30;28.78
7180;BME280;3631;42.152;24.756;2023-06-22T06:11:24;80960.22;;;-144.30;28.62
7180;BME280;3631;42.152;24.756;2023-06-22T06:13:51;81081.34;;;-144.30;28.76
7180;BME280;3631;42.152;24.756;2023-06-22T06:16:18;81168.69;;;-144.30;28.84
7180;BME280;3631;42.152;24.756;2023-06-22T06:18:45;81403.00;;;-144.30;29.77
7180;BME280;3631;42.152;24.756;2023-06-22T06:21:14;81500.28;;;-144.30;30.20
7180;BME280;3631;42.152;24.756;2023-06-22T06:23:42;81982.84;;;-144.30;29.97
7180;BME280;3631;42.152;24.756;2023-06-22T06:26:09;81468.50;;;-144.30;30.19
7180;BME280;3631;42.152;24.756;2023-06-22T06:28:36;81369.22;;;-144.30;29.87
7180;BME280;3631;42.152;24.756;2023-06-22T06:31:02;81365.25;;;-144.30;30.04
7180;BME280;3631;42.152;24.756;2023-06-22T06:33:34;81264.00;;;-144.30;30.06
7180;BME280;3631;42.152;24.756;2023-06-22T06:36:01;81260.03;;;-144.30;29.80
7180;BME280;3631;42.152;24.756;2023-06-22T06:38:29;81331.50;;;-144.30;30.01
7180;BME280;3631;42.152;24.756;2023-06-22T06:40:58;81267.97;;;-144.30;29.60
7180;BME280;3631;42.152;24.756;2023-06-22T06:43:24;81351.34;;;-144.30;30.40
7180;BME280;3631;42.152;24.756;2023-06-22T06:45:51;81319.59;;;-144.30;30.36
7180;BME280;3631;42.152;24.756;2023-06-22T06:48:18;81359.31;;;-144.30;30.09
7180;BME280;3631;42.152;24.756;2023-06-22T06:50:45;81399.00;;;-144.30;30.57
7180;BME280;3631;42.152;24.756;2023-06-22T06:53:12;81458.59;;;-144.30;30.72
7180;BME280;3631;42.152;24.756;2023-06-22T06:55:39;81524.13;;;-144.30;30.88
7180;BME280;3631;42.152;24.756;2023-06-22T06:58:08;81607.50;;;-144.30;31.19
7180;BME280;3631;42.152;24.756;2023-06-22T07:00:37;81543.97;;;-144.30;31.00
7180;BME280;3631;42.152;24.756;2023-06-22T07:03:04;81526.09;;;-144.30;30.77
7180;BME280;3631;42.152;24.756;2023-06-22T07:05:32;81585.66;;;-144.30;31.48
7180;BME280;3631;42.152;24.756;2023-06-22T07:07:59;81506.25;;;-144.30;30.74
7180;BME280;3631;42.152;24.756;2023-06-22T07:10:26;81486.38;;;-144.30;31.23
7180;BME280;3631;42.152;24.756;2023-06-22T07:12:53;81559.84;;;-144.30;30.84
7180;BME280;3631;42.152;24.756;2023-06-22T07:15:21;81526.09;;;-144.30;31.06
7180;BME280;3631;42.152;24.756;2023-06-22T07:17:48;81490.34;;;-144.30;30.49
7180;BME280;3631;42.152;24.756;2023-06-22T07:20:15;81545.97;;;-144.30;30.89
7180;BME280;3631;42.152;24.756;2023-06-22T07:22:43;81688.94;;;-144.30;31.13
7180;BME280;3631;42.152;24.756;2023-06-22T07:25:10;81776.31;;;-144.30;31.53
7180;BME280;3631;42.152;24.756;2023-06-22T07:27:42;81889.50;;;-144.30;31.69
7180;BME280;3631;42.152;24.756;2023-06-22T07:30:11;81955.03;;;-144.30;31.69
7180;BME280;3631;42.152;24.756;2023-06-22T07:32:40;81907.38;;;-144.30;32.12
7180;BME280;3631;42.152;24.756;2023-06-22T07:35:07;81945.09;;;-144.30;31.93
7180;BME280;3631;42.152;24.756;2023-06-22T07:37:35;81887.53;;;-144.30;31.94
7180;BME280;3631;42.152;24.756;2023-06-22T07:40:02;81835.88;;;-144.30;31.86
7180;BME280;3631;42.152;24.756;2023-06-22T07:42:32;81784.25;;;-144.30;31.73
7180;BME280;3631;42.152;24.756;2023-06-22T07:44:59;81661.13;;;-144.30;31.52
7180;BME280;3631;42.152;24.756;2023-06-22T07:47:27;81474.47;;;-144.30;30.46
7180;BME280;3631;42.152;24.756;2023-06-22T07:49:55;81416.88;;;-144.30;30.16
7180;BME280;3631;42.152;24.756;2023-06-22T07:52:23;81311.66;;;-144.30;29.80
7180;BME280;3631;42.152;24.756;2023-06-22T07:54:51;81234.22;;;-144.30;30.11
7180;BME280;3631;42.152;24.756;2023-06-22T07:57:18;81242.16;;;-144.30;29.49
7180;BME280;3631;42.152;24.756;2023-06-22T07:59:45;81204.44;;;-144.30;29.58
7180;BME280;3631;42.152;24.756;2023-06-22T08:02:12;81222.28;;;-144.30;29.40
7180;BME280;3631;42.152;24.756;2023-06-22T08:04:39;81111.13;;;-144.30;28.91
7180;BME280;3631;42.152;24.756;2023-06-22T08:07:07;81013.81;;;-144.30;28.08
7180;BME280;3631;42.152;24.756;2023-06-22T08:09:35;80874.84;;;-144.30;28.10
7180;BME280;3631;42.152;24.756;2023-06-22T08:12:02;80773.59;;;-144.30;27.96
7180;BME280;3631;42.152;24.756;2023-06-22T08:14:30;80759.69;;;-144.30;27.81
7180;BME280;3631;42.152;24.756;2023-06-22T08:16:57;80690.22;;;-144.30;27.63
7180;BME280;3631;42.152;24.756;2023-06-22T08:19:23;80668.38;;;-144.30;27.60
7180;BME280;3631;42.152;24.756;2023-06-22T08:21:50;80581.03;;;-144.30;27.42
7180;BME280;3631;42.152;24.756;2023-06-22T08:24:18;80440.09;;;-144.30;27.25
7180;BME280;3631;42.152;24.756;2023-06-22T08:26:45;80350.75;;;-144.30;27.16
7180;BME280;3631;42.152;24.756;2023-06-22T08:29:12;80332.91;;;-144.30;26.89
7180;BME280;3631;42.152;24.756;2023-06-22T08:31:40;80436.13;;;-144.30;26.66
7180;BME280;3631;42.152;24.756;2023-06-22T08:34:06;80412.28;;;-144.30;27.04
7180;BME280;3631;42.152;24.756;2023-06-22T08:36:33;80402.38;;;-144.30;26.30
7180;BME280;3631;42.152;24.756;2023-06-22T08:39:06;80434.13;;;-144.30;26.46
7180;BME280;3631;42.152;24.756;2023-06-22T08:41:35;80489.72;;;-144.30;26.78
7180;BME280;3631;42.152;24.756;2023-06-22T08:44:01;80702.13;;;-144.30;26.77
7180;BME280;3631;42.152;24.756;2023-06-22T08:46:29;80759.69;;;-144.30;26.65
7180;BME280;3631;42.152;24.756;2023-06-22T08:48:59;81033.69;;;-144.30;27.16
7180;BME280;3631;42.152;24.756;2023-06-22T08:51:26;81132.94;;;-144.30;27.57
7180;BME280;3631;42.152;24.756;2023-06-22T08:53:54;81113.09;;;-144.30;27.88
7180;BME280;3631;42.152;24.756;2023-06-22T08:56:21;81140.91;;;-144.30;27.86
7180;BME280;3631;42.152;24.756;2023-06-22T08:58:49;81250.09;;;-144.30;28.17
7180;BME280;3631;42.152;24.756;2023-06-22T09:01:16;81178.63;;;-144.30;28.15
7180;BME280;3631;42.152;24.756;2023-06-22T09:03:43;81170.69;;;-144.30;27.89
7180;BME280;3631;42.152;24.756;2023-06-22T09:06:10;81152.81;;;-144.30;27.33
7180;BME280;3631;42.152;24.756;2023-06-22T09:08:37;81315.63;;;-144.30;27.50
7180;BME280;3631;42.152;24.756;2023-06-22T09:11:04;81271.94;;;-144.30;27.62
7180;BME280;3631;42.152;24.756;2023-06-22T09:13:32;81285.84;;;-144.30;27.83
7180;BME280;3631;42.152;24.756;2023-06-22T09:16:01;81303.72;;;-144.30;27.72
7180;BME280;3631;42.152;24.756;2023-06-22T09:18:28;81273.91;;;-144.30;28.37
7180;BME280;3631;42.152;24.756;2023-06-22T09:20:56;81222.28;;;-144.30;27.68
7180;BME280;3631;42.152;24.756;2023-06-22T09:23:23;81236.19;;;-144.30;27.23
7180;BME280;3631;42.152;24.756;2023-06-22T09:25:49;81258.03;;;-144.30;27.01
7180;BME280;3631;42.152;24.756;2023-06-22T09:28:16;81248.13;;;-144.30;27.43
7180;BME280;3631;42.152;24.756;2023-06-22T09:30:43;81228.25;;;-144.30;27.26
7180;BME280;3631;42.152;24.756;2023-06-22T09:33:12;81232.22;;;-144.30;27.45
7180;BME280;3631;42.152;24.756;2023-06-22T09:35:39;81254.06;;;-144.30;27.96
7180;BME280;3631;42.152;24.756;2023-06-22T09:38:06;81414.91;;;-144.30;28.17
7180;BME280;3631;42.152;24.756;2023-06-22T09:40:32;81410.94;;;-144.30;28.10
7180;BME280;3631;42.152;24.756;2023-06-22T09:43:05;81446.66;;;-144.30;27.78
7180;BME280;3631;42.152;24.756;2023-06-22T09:45:32;81496.31;;;-144.30;27.47
7180;BME280;3631;42.152;24.756;2023-06-22T09:47:59;81617.44;;;-144.30;27.31
7180;BME280;3631;42.152;24.756;2023-06-22T09:50:27;81547.94;;;-144.30;27.62
7180;BME280;3631;42.152;24.756;2023-06-22T09:52:54;81486.38;;;-144.30;27.50
7180;BME280;3631;42.152;24.756;2023-06-22T09:55:21;81504.25;;;-144.30;27.83
7180;BME280;3631;42.152;24.756;2023-06-22T09:57:48;81494.31;;;-144.30;27.64
7180;BME280;3631;42.152;24.756;2023-06-22T10:00:17;81470.50;;;-144.30;27.28
7180;BME280;3631;42.152;24.756;2023-06-22T10:02:44;81494.31;;;-144.30;27.38
7180;BME280;3631;42.152;24.756;2023-06-22T10:05:11;81494.31;;;-144.30;26.67
7180;BME280;3631;42.152;24.756;2023-06-22T10:07:40;81577.72;;;-144.30;27.25
7180;BME280;3631;42.152;24.756;2023-06-22T10:10:09;81516.16;;;-144.30;27.03
7180;BME280;3631;42.152;24.756;2023-06-22T10:12:36;81484.41;;;-144.30;26.59
7180;BME280;3631;42.152;24.756;2023-06-22T10:15:03;81653.19;;;-144.30;27.08
7180;BME280;3631;42.152;24.756;2023-06-22T10:17:30;81698.84;;;-144.30;27.22
7180;BME280;3631;42.152;24.756;2023-06-22T10:19:57;81756.44;;;-144.30;27.59
7180;BME280;3631;42.152;24.756;2023-06-22T10:22:24;81823.97;;;-144.30;27.89
7180;BME280;3631;42.152;24.756;2023-06-22T10:24:52;81833.91;;;-144.30;28.24
7180;BME280;3631;42.152;24.756;2023-06-22T10:27:19;81885.53;;;-144.30;28.15
7180;BME280;3631;42.152;24.756;2023-06-22T10:29:46;81935.19;;;-144.30;27.70
7180;BME280;3631;42.152;24.756;2023-06-22T10:32:13;81911.34;;;-144.30;28.26
7180;BME280;3631;42.152;24.756;2023-06-22T10:34:40;81935.19;;;-144.30;28.43
7180;BME280;3631;42.152;24.756;2023-06-22T10:37:07;82006.69;;;-144.30;27.96
7180;BME280;3631;42.152;24.756;2023-06-22T10:39:33;81980.84;;;-144.30;28.50
7180;BME280;3631;42.152;24.756;2023-06-22T10:42:02;82014.63;;;-144.30;28.69
7180;BME280;3631;42.152;24.756;2023-06-22T10:44:29;82024.56;;;-144.30;28.57
7180;BME280;3631;42.152;24.756;2023-06-22T10:46:56;81951.06;;;-144.30;28.99
7180;BME280;3631;42.152;24.756;2023-06-22T10:49:23;81968.94;;;-144.30;28.61
7180;BME280;3631;42.152;24.756;2023-06-22T10:51:50;81937.16;;;-144.30;28.78
7180;BME280;3631;42.152;24.756;2023-06-22T10:54:16;81939.16;;;-144.30;28.46
7180;BME280;3631;42.152;24.756;2023-06-22T10:56:44;81980.84;;;-144.30;28.69
7180;BME280;3631;42.152;24.756;2023-06-22T10:59:13;81941.13;;;-144.30;28.84
7180;BME280;3631;42.152;24.756;2023-06-22T11:01:40;81953.06;;;-144.30;28.58
7180;BME280;3631;42.152;24.756;2023-06-22T11:04:06;81968.94;;;-144.30;28.34
7180;BME280;3631;42.152;24.756;2023-06-22T11:06:33;82598.56;;;-144.30;27.99
7180;BME280;3631;42.152;24.756;2023-06-22T11:09:00;82044.41;;;-144.30;28.00
7180;BME280;3631;42.152;24.756;2023-06-22T11:11:29;81998.72;;;-144.30;27.94
7180;BME280;3631;42.152;24.756;2023-06-22T11:13:56;81984.81;;;-144.30;27.89
7180;BME280;3631;42.152;24.756;2023-06-22T11:16:24;81982.84;;;-144.30;28.09
7180;BME280;3631;42.152;24.756;2023-06-22T11:18:51;82064.28;;;-144.30;28.52
7180;BME280;3631;42.152;24.756;2023-06-22T11:21:18;82046.41;;;-144.30;28.90
7180;BME280;3631;42.152;24.756;2023-06-22T11:23:45;82098.03;;;-144.30;28.80
7180;BME280;3631;42.152;24.756;2023-06-22T11:26:12;82159.59;;;-144.30;28.66
7180;BME280;3631;42.152;24.756;2023-06-22T11:28:39;82165.56;;;-144.30;28.88
7180;BME280;3631;42.152;24.756;2023-06-22T11:31:06;82165.56;;;-144.30;29.32
7180;BME280;3631;42.152;24.756;2023-06-22T11:33:34;82185.41;;;-144.30;29.38
7180;BME280;3631;42.152;24.756;2023-06-22T11:36:01;82131.78;;;-144.30;29.45
7180;BME280;3631;42.152;24.756;2023-06-22T11:38:28;82165.56;;;-144.30;29.10
7180;BME280;3631;42.152;24.756;2023-06-22T11:40:57;82117.88;;;-144.30;29.17
7180;BME280;3631;42.152;24.756;2023-06-22T11:43:25;82092.06;;;-144.30;29.17
7180;BME280;3631;42.152;24.756;2023-06-22T11:45:51;82076.19;;;-144.30;29.05
7180;BME280;3631;42.152;24.756;2023-06-22T11:48:20;82022.56;;;-144.30;29.05
7180;BME280;3631;42.152;24.756;2023-06-22T11:50:49;82080.16;;;-144.30;28.96
7180;BME280;3631;42.152;24.756;2023-06-22T11:53:16;82098.03;;;-144.30;29.12
7180;BME280;3631;42.152;24.756;2023-06-22T11:55:43;82121.88;;;-144.30;29.02
7180;BME280;3631;42.152;24.756;2023-06-22T11:58:10;82121.88;;;-144.30;28.90
7180;BME280;3631;42.152;24.756;2023-06-22T12:00:37;82119.88;;;-144.30;29.39
7180;BME280;3631;42.152;24.756;2023-06-22T12:03:04;82117.88;;;-144.30;29.50
7180;BME280;3631;42.152;24.756;2023-06-22T12:05:31;82086.13;;;-144.30;29.33
7180;BME280;3631;42.152;24.756;2023-06-22T12:07:59;82066.25;;;-144.30;29.04
7180;BME280;3631;42.152;24.756;2023-06-22T12:10:26;82062.28;;;-144.30;28.92
7180;BME280;3631;42.152;24.756;2023-06-22T12:12:54;82018.59;;;-144.30;28.78
7180;BME280;3631;42.152;24.756;2023-06-22T12:15:23;82040.44;;;-144.30;29.10
7180;BME280;3631;42.152;24.756;2023-06-22T12:17:50;82024.56;;;-144.30;29.46
7180;BME280;3631;42.152;24.756;2023-06-22T12:20:17;82109.94;;;-144.30;29.32
7180;BME280;3631;42.152;24.756;2023-06-22T12:22:44;82054.34;;;-144.30;29.53
7180;BME280;3631;42.152;24.756;2023-06-22T12:25:12;82104.00;;;-144.30;29.38
7180;BME280;3631;42.152;24.756;2023-06-22T12:27:39;82078.16;;;-144.30;29.57
7180;BME280;3631;42.152;24.756;2023-06-22T12:30:08;82109.94;;;-144.30;29.34
7180;BME280;3631;42.152;24.756;2023-06-22T12:32:35;82058.31;;;-144.30;29.26
7180;BME280;3631;42.152;24.756;2023-06-22T12:35:02;82052.34;;;-144.30;29.41
7180;BME280;3631;42.152;24.756;2023-06-22T12:37:29;82032.50;;;-144.30;29.34
7180;BME280;3631;42.152;24.756;2023-06-22T12:39:57;82016.59;;;-144.30;29.30
7180;BME280;3631;42.152;24.756;2023-06-22T12:42:26;82058.31;;;-144.30;29.23
7180;BME280;3631;42.152;24.756;2023-06-22T12:44:53;82042.41;;;-144.30;29.79
7180;BME280;3631;42.152;24.756;2023-06-22T12:47:20;82026.53;;;-144.30;29.67
7180;BME280;3631;42.152;24.756;2023-06-22T12:49:47;82157.63;;;-144.30;30.07
7180;BME280;3631;42.152;24.756;2023-06-22T12:52:14;82161.59;;;-144.30;30.20